Time;durP1;ratioP1;P1;durP2;ratioP2;P2;SDS_P1;SDS_P2;PMS_P1;PMS_P2;Temp;Humidity;BMP_temperature;BMP_pressure;BME280_temperature;BME280_humidity;BME280_pressure;Samples;Min_cycle;Max_cycle;Signal;HPM_P1;HPM_P2
2022/03/03 00:00:42;;;;;;;0.60;0.60;;;;;;;-3.78;46.32;99089.19;5093079;28;20052;-86
2022/03/03 00:03:09;;;;;;;0.55;0.55;;;;;;;-3.79;46.60;99092.81;5075138;28;20425;-85
2022/03/03 00:05:38;;;;;;;0.50;0.50;;;;;;;-3.82;46.76;99081.72;5092453;28;20052;-85
2022/03/03 00:08:05;;;;;;;0.63;0.63;;;;;;;-3.84;46.80;99075.81;5093178;28;20052;-86
2022/03/03 00:10:32;;;;;;;0.47;0.47;;;;;;;-3.83;46.78;99082.72;5092694;28;20046;-85
2022/03/03 00:12:59;;;;;;;0.60;0.60;;;;;;;-3.85;46.52;99082.03;5092647;28;20052;-85
2022/03/03 00:15:27;;;;;;;0.52;0.52;;;;;;;-3.87;46.64;99076.06;5092559;28;20052;-85
2022/03/03 00:17:54;;;;;;;0.70;0.70;;;;;;;-3.96;46.78;99049.63;5093006;28;20131;-85
2022/03/03 00:20:21;;;;;;;0.47;0.47;;;;;;;-3.91;46.67;99062.38;5093087;28;20048;-86
2022/03/03 00:22:48;;;;;;;0.60;0.60;;;;;;;-3.90;46.86;99052.66;5092641;28;20044;-85
2022/03/03 00:25:18;;;;;;;0.68;0.68;;;;;;;-3.89;46.96;99060.44;5092978;28;20055;-86
2022/03/03 00:27:45;;;;;;;0.60;0.60;;;;;;;-3.88;47.13;99046.25;5094136;28;20075;-85
2022/03/03 00:30:13;;;;;;;0.60;0.60;;;;;;;-3.86;47.12;99049.56;5092908;28;20066;-86
2022/03/03 00:32:41;;;;;;;0.60;0.60;;;;;;;-3.86;47.16;99039.03;5092292;28;20491;-85
2022/03/03 00:35:09;;;;;;;0.40;0.40;;;;;;;-3.82;47.09;99040.38;5092491;28;20070;-86
2022/03/03 00:37:38;;;;;;;0.70;0.70;;;;;;;-3.87;47.26;99028.63;5091264;28;20051;-85
2022/03/03 00:40:08;;;;;;;0.60;0.60;;;;;;;-3.86;47.24;99035.56;5075103;28;20047;-85
2022/03/03 00:42:35;;;;;;;0.60;0.60;;;;;;;-3.91;47.27;99020.19;5092634;28;20529;-85
2022/03/03 00:45:06;;;;;;;0.50;0.50;;;;;;;-3.96;47.50;99030.34;5087697;28;20052;-85
2022/03/03 00:47:33;;;;;;;0.60;0.60;;;;;;;-4.04;47.60;99025.03;5095732;28;20534;-86
2022/03/03 00:50:01;;;;;;;0.40;0.40;;;;;;;-4.15;47.92;99021.63;5092126;28;20075;-84
2022/03/03 00:52:29;;;;;;;0.50;0.50;;;;;;;-4.20;48.10;99023.88;5089487;28;20131;-85
2022/03/03 00:54:56;;;;;;;0.80;0.80;;;;;;;-4.26;48.31;99016.56;5074317;28;20047;-86
2022/03/03 00:57:23;;;;;;;0.40;0.40;;;;;;;-4.26;48.44;99015.75;5092675;28;20515;-86
2022/03/03 00:59:50;;;;;;;0.47;0.47;;;;;;;-4.33;48.75;99010.22;5092375;28;20044;-84
2022/03/03 01:02:19;;;;;;;0.50;0.50;;;;;;;-4.39;48.97;99010.84;5092805;28;20051;-86
2022/03/03 01:04:46;;;;;;;0.40;0.40;;;;;;;-4.44;49.11;99016.53;5091887;28;20052;-85
2022/03/03 01:07:13;;;;;;;0.50;0.50;;;;;;;-4.48;49.43;99015.19;5092000;28;20062;-87
2022/03/03 01:09:40;;;;;;;0.60;0.60;;;;;;;-4.61;50.19;99012.91;5087368;28;20052;-86
2022/03/03 01:12:08;;;;;;;0.40;0.40;;;;;;;-4.73;50.47;99005.38;5091919;28;20052;-86
2022/03/03 01:14:35;;;;;;;0.60;0.60;;;;;;;-4.85;50.74;99008.19;5092821;28;20121;-86
2022/03/03 01:17:03;;;;;;;0.70;0.70;;;;;;;-4.83;50.58;98993.06;5113996;28;20066;-83
2022/03/03 01:19:30;;;;;;;0.50;0.50;;;;;;;-4.83;50.71;98997.50;5115527;28;20043;-84
2022/03/03 01:21:58;;;;;;;0.45;0.45;;;;;;;-4.86;50.87;98998.63;5111721;28;20087;-84
2022/03/03 01:24:25;;;;;;;0.60;0.60;;;;;;;-4.86;50.90;99000.41;5102517;28;20399;-86
2022/03/03 01:26:55;;;;;;;0.60;0.60;;;;;;;-4.85;51.05;98999.47;5097956;28;20051;-85
2022/03/03 01:29:22;;;;;;;0.60;0.60;;;;;;;-4.92;50.95;98991.31;5093216;28;20079;-86
2022/03/03 01:31:50;;;;;;;0.50;0.50;;;;;;;-4.98;51.18;98993.72;5092297;28;20097;-86
2022/03/03 01:34:18;;;;;;;0.73;0.73;;;;;;;-5.04;51.44;98981.94;5092853;28;20144;-85
2022/03/03 01:36:45;;;;;;;0.60;0.60;;;;;;;-5.04;51.33;98980.16;5058045;28;20498;-86
2022/03/03 01:39:12;;;;;;;0.60;0.60;;;;;;;-5.07;51.44;98969.06;5097054;28;20048;-86
2022/03/03 01:41:41;;;;;;;0.73;0.73;;;;;;;-5.09;51.66;98965.75;5077750;28;20044;-86
2022/03/03 01:44:12;;;;;;;0.55;0.55;;;;;;;-5.06;51.62;98974.22;5076038;28;20044;-85
2022/03/03 01:46:53;;;;;;;0.60;0.60;;;;;;;-5.06;51.80;98968.13;5093721;28;20052;-85
2022/03/03 01:49:21;;;;;;;0.60;0.60;;;;;;;-5.10;51.62;98970.19;5075617;28;20155;-85
2022/03/03 01:51:48;;;;;;;0.50;0.50;;;;;;;-5.10;51.46;98958.84;5093116;28;20052;-84
2022/03/03 01:54:16;;;;;;;0.65;0.65;;;;;;;-5.14;51.57;98952.19;5086291;28;20049;-84
2022/03/03 01:56:46;;;;;;;0.60;0.60;;;;;;;-5.12;51.59;98950.25;5072916;28;20044;-85
2022/03/03 01:59:14;;;;;;;0.70;0.70;;;;;;;-5.14;51.59;98953.06;5072063;28;20443;-86
2022/03/03 02:01:44;;;;;;;0.52;0.52;;;;;;;-5.14;51.55;98947.78;5053222;28;20049;-85
2022/03/03 02:04:11;;;;;;;0.55;0.55;;;;;;;-5.19;51.70;98944.78;5089910;28;20052;-84
2022/03/03 02:06:38;;;;;;;0.60;0.60;;;;;;;-5.26;52.05;98947.16;5091085;28;20052;-84
2022/03/03 02:09:05;;;;;;;0.68;0.68;;;;;;;-5.25;52.09;98940.91;5091087;28;20105;-83
2022/03/03 02:11:36;;;;;;;0.68;0.68;;;;;;;-5.26;52.14;98946.31;5090128;28;20071;-84
2022/03/03 02:14:05;;;;;;;0.68;0.68;;;;;;;-5.33;52.84;98943.44;5089585;28;20468;-83
2022/03/03 02:16:32;;;;;;;0.45;0.45;;;;;;;-5.35;52.41;98940.09;5089886;28;20054;-85
2022/03/03 02:18:59;;;;;;;0.60;0.60;;;;;;;-5.36;52.64;98933.19;5079567;28;20567;-85
2022/03/03 02:21:26;;;;;;;0.65;0.65;;;;;;;-5.38;52.65;98927.25;5094902;28;20051;-84
2022/03/03 02:23:59;;;;;;;0.47;0.47;;;;;;;-5.41;52.73;98930.19;5076663;28;20044;-85
2022/03/03 02:26:26;;;;;;;0.70;0.70;;;;;;;-5.45;52.89;98928.78;5095050;28;20055;-83
2022/03/03 02:28:56;;;;;;;0.55;0.55;;;;;;;-5.47;52.84;98925.47;5095179;28;20427;-86
2022/03/03 02:31:24;;;;;;;0.52;0.52;;;;;;;-5.55;52.94;98913.03;5095273;28;20097;-89
2022/03/03 02:33:51;;;;;;;0.70;0.70;;;;;;;-5.55;53.09;98922.75;5100737;28;20044;-85
2022/03/03 02:36:21;;;;;;;0.60;0.60;;;;;;;-5.58;53.41;98912.53;5083293;28;20574;-88
2022/03/03 02:38:51;;;;;;;0.80;0.80;;;;;;;-5.59;53.41;98908.25;5076868;28;20048;-86
2022/03/03 02:41:18;;;;;;;0.60;0.60;;;;;;;-5.62;53.33;98924.28;5060649;28;20079;-88
2022/03/03 02:43:46;;;;;;;0.70;0.70;;;;;;;-5.68;53.39;98923.88;5092377;28;20470;-86
2022/03/03 02:46:19;;;;;;;0.47;0.47;;;;;;;-5.73;53.56;98918.22;5085520;28;20048;-85
2022/03/03 02:48:46;;;;;;;0.70;0.70;;;;;;;-5.70;53.25;98915.34;5065568;28;20051;-85
2022/03/03 02:51:14;;;;;;;0.70;0.70;;;;;;;-5.74;53.52;98918.38;5084919;28;20063;-85
2022/03/03 02:53:44;;;;;;;0.60;0.60;;;;;;;-5.80;53.53;98916.31;5088250;28;20058;-86
2022/03/03 02:57:53;;;;;;;0.80;0.80;;;;;;;-5.82;53.80;98923.50;5087420;28;20516;-85
2022/03/03 02:59:24;;;;;;;0.50;0.50;;;;;;;-5.84;53.69;98907.91;5065916;28;20060;-86
2022/03/03 03:01:51;;;;;;;0.70;0.70;;;;;;;-5.84;53.71;98904.44;5067588;28;20048;-84
2022/03/03 03:04:18;;;;;;;0.73;0.73;;;;;;;-5.87;53.76;98902.94;5082965;28;20455;-86
2022/03/03 03:06:45;;;;;;;0.60;0.60;;;;;;;-5.85;53.76;98897.50;5073362;28;20514;-85
2022/03/03 03:09:12;;;;;;;0.70;0.70;;;;;;;-5.85;53.79;98890.44;5084895;28;20051;-85
2022/03/03 03:11:40;;;;;;;0.85;0.85;;;;;;;-5.87;53.59;98887.16;5083478;28;20044;-85
2022/03/03 03:14:07;;;;;;;0.70;0.70;;;;;;;-5.82;53.64;98887.56;5083578;28;20048;-85
2022/03/03 03:16:34;;;;;;;0.60;0.60;;;;;;;-5.85;53.66;98893.06;5084783;28;20044;-86
2022/03/03 03:19:01;;;;;;;0.52;0.52;;;;;;;-5.86;53.71;98888.81;5083895;28;20083;-86
2022/03/03 03:21:28;;;;;;;0.60;0.60;;;;;;;-5.89;54.22;98875.94;5088631;28;20036;-85
2022/03/03 03:24:02;;;;;;;0.73;0.73;;;;;;;-5.91;54.28;98880.50;5090221;28;20059;-82
2022/03/03 03:26:29;;;;;;;0.80;0.80;;;;;;;-5.94;54.42;98881.66;5084934;28;20042;-84
2022/03/03 03:29:01;;;;;;;0.65;0.65;;;;;;;-6.02;54.58;98889.44;5091454;28;20123;-82
2022/03/03 03:31:28;;;;;;;0.80;0.80;;;;;;;-6.08;54.60;98878.66;5093837;28;20124;-83
2022/03/03 03:33:57;;;;;;;0.70;0.70;;;;;;;-6.14;54.81;98878.25;5092446;28;20051;-84
2022/03/03 03:36:24;;;;;;;0.70;0.70;;;;;;;-6.23;54.75;98873.00;5093531;28;20097;-84
2022/03/03 03:38:51;;;;;;;0.95;0.95;;;;;;;-6.29;54.91;98869.16;5079772;28;20466;-82
2022/03/03 03:41:47;;;;;;;0.60;0.60;;;;;;;-6.33;55.02;98868.63;5092116;28;20149;-84
2022/03/03 03:44:15;;;;;;;0.75;0.75;;;;;;;-6.38;55.36;98867.34;5063553;28;20068;-82
2022/03/03 03:46:43;;;;;;;0.73;0.73;;;;;;;-6.41;55.38;98857.13;5089919;28;20062;-83
2022/03/03 03:49:10;;;;;;;0.75;0.75;;;;;;;-6.43;55.53;98864.31;4738999;28;10001290;-84
2022/03/03 03:51:37;;;;;;;0.65;0.65;;;;;;;-6.47;55.53;98857.72;5090130;28;20044;-82
2022/03/03 03:54:09;;;;;;;0.98;0.98;;;;;;;-6.48;55.70;98859.50;5070592;28;20139;-83
2022/03/03 03:56:37;;;;;;;0.80;0.80;;;;;;;-6.57;55.68;98853.28;5073223;28;20389;-86
2022/03/03 03:59:04;;;;;;;0.77;0.77;;;;;;;-6.50;55.75;98860.63;5055478;28;20044;-86
2022/03/03 04:01:32;;;;;;;0.85;0.85;;;;;;;-6.57;56.01;98855.09;5091433;28;20363;-84
2022/03/03 04:03:59;;;;;;;0.90;0.90;;;;;;;-6.56;55.87;98860.22;5089619;28;20141;-83
2022/03/03 04:06:27;;;;;;;0.77;0.77;;;;;;;-6.61;56.27;98851.06;5089706;28;20052;-82
2022/03/03 04:08:54;;;;;;;0.70;0.70;;;;;;;-6.63;56.18;98858.28;5072567;28;20079;-83
2022/03/03 04:11:27;;;;;;;0.77;0.77;;;;;;;-6.62;56.16;98854.66;5092458;28;20052;-86
2022/03/03 04:13:56;;;;;;;0.82;0.82;;;;;;;-6.59;56.61;98849.13;5074088;28;20048;-83
2022/03/03 04:16:25;;;;;;;0.70;0.70;;;;;;;-6.46;56.43;98849.66;5092570;28;20060;-83
2022/03/03 04:18:52;;;;;;;0.60;0.60;;;;;;;-6.49;56.51;98854.38;5058114;28;20087;-82
2022/03/03 04:21:19;;;;;;;0.73;0.73;;;;;;;-6.58;56.90;98846.38;5093383;28;20075;-85
2022/03/03 04:23:47;;;;;;;0.70;0.70;;;;;;;-6.62;56.98;98842.38;5095961;28;20352;-83
2022/03/03 04:26:14;;;;;;;0.90;0.90;;;;;;;-6.65;56.81;98840.03;5092682;28;20063;-85
2022/03/03 04:28:42;;;;;;;0.70;0.70;;;;;;;-6.68;56.89;98842.94;5095255;28;20139;-84
2022/03/03 04:31:09;;;;;;;0.90;0.90;;;;;;;-6.62;56.80;98839.75;5092911;28;20050;-85
2022/03/03 04:33:42;;;;;;;0.73;0.73;;;;;;;-6.55;56.87;98835.59;5092064;28;20041;-84
2022/03/03 04:36:10;;;;;;;0.90;0.90;;;;;;;-6.50;56.51;98834.34;5090671;28;20052;-83
2022/03/03 04:38:37;;;;;;;0.77;0.77;;;;;;;-6.47;56.61;98840.16;5074727;28;20108;-84
2022/03/03 04:41:04;;;;;;;0.82;0.82;;;;;;;-6.44;56.61;98831.16;5057239;28;20052;-85
2022/03/03 04:43:31;;;;;;;0.90;0.90;;;;;;;-6.47;56.63;98834.91;5085451;28;20135;-85
2022/03/03 04:45:59;;;;;;;0.80;0.80;;;;;;;-6.43;56.54;98836.28;5087448;28;20047;-84
2022/03/03 04:48:29;;;;;;;0.75;0.75;;;;;;;-6.41;56.50;98838.75;5091749;28;20044;-84
2022/03/03 04:50:57;;;;;;;0.90;0.90;;;;;;;-6.37;56.36;98840.97;5091823;28;20044;-84
2022/03/03 04:53:26;;;;;;;0.70;0.70;;;;;;;-6.32;56.44;98840.53;5088415;28;20152;-85
2022/03/03 04:55:54;;;;;;;1.00;1.00;;;;;;;-6.27;56.35;98838.31;5092252;28;20402;-84
2022/03/03 04:58:21;;;;;;;0.80;0.80;;;;;;;-6.21;56.14;98837.75;5073513;28;20044;-84
2022/03/03 05:00:52;;;;;;;0.90;0.90;;;;;;;-6.15;56.18;98837.19;5073145;28;20050;-84
2022/03/03 05:03:20;;;;;;;0.70;0.70;;;;;;;-6.04;55.95;98836.19;5088696;28;20051;-83
2022/03/03 05:05:47;;;;;;;0.90;0.90;;;;;;;-5.94;55.62;98834.34;5075748;28;20068;-84
2022/03/03 05:08:25;;;;;;;0.77;0.77;;;;;;;-5.68;55.29;98839.75;5087624;28;20121;-85
2022/03/03 05:10:55;;;;;;;0.80;0.80;;;;;;;-5.51;54.69;98826.81;5091890;28;20086;-84
2022/03/03 05:13:23;;;;;;;0.88;0.88;;;;;;;-5.45;54.92;98819.16;5073719;28;20054;-84
2022/03/03 05:16:04;;;;;;;0.90;0.90;;;;;;;-5.18;54.50;98827.19;5091822;28;20097;-84
2022/03/03 05:18:32;;;;;;;0.73;0.73;;;;;;;-5.04;54.43;98826.66;5091596;28;20063;-84
2022/03/03 05:20:59;;;;;;;0.80;0.80;;;;;;;-4.96;54.35;98813.59;5075645;28;20045;-84
2022/03/03 05:23:28;;;;;;;0.77;0.77;;;;;;;-4.94;54.33;98819.50;5083454;28;20147;-85
2022/03/03 05:25:55;;;;;;;0.70;0.70;;;;;;;-5.03;54.32;98820.44;5074404;28;20494;-85
2022/03/03 05:28:22;;;;;;;0.77;0.77;;;;;;;-4.97;54.17;98824.25;5092010;28;20044;-84
2022/03/03 05:30:49;;;;;;;0.70;0.70;;;;;;;-4.79;54.46;98832.97;5070692;28;20048;-85
2022/03/03 05:33:18;;;;;;;0.70;0.70;;;;;;;-4.66;54.24;98820.28;5077019;28;20050;-84
2022/03/03 05:35:47;;;;;;;0.80;0.80;;;;;;;-4.58;54.29;98809.81;5089141;28;20078;-84
2022/03/03 05:38:14;;;;;;;0.80;0.80;;;;;;;-4.46;53.90;98826.19;5091160;28;20048;-84
2022/03/03 05:40:42;;;;;;;0.60;0.60;;;;;;;-4.43;53.81;98831.16;5091417;28;20056;-83
2022/03/03 05:43:09;;;;;;;0.80;0.80;;;;;;;-4.40;53.76;98825.59;5067988;28;20138;-84
2022/03/03 05:45:38;;;;;;;0.50;0.50;;;;;;;-4.42;53.68;98824.91;5061410;28;20067;-84
2022/03/03 05:48:07;;;;;;;0.68;0.68;;;;;;;-4.36;53.89;98829.56;5056081;28;20442;-84
2022/03/03 05:50:35;;;;;;;0.60;0.60;;;;;;;-4.31;53.85;98820.38;5076331;28;20060;-83
2022/03/03 05:53:05;;;;;;;0.70;0.70;;;;;;;-4.25;53.92;98828.50;5077545;28;20795;-84
2022/03/03 05:55:42;;;;;;;0.60;0.60;;;;;;;-4.09;54.08;98822.50;5082816;28;20421;-85
2022/03/03 05:58:19;;;;;;;0.63;0.63;;;;;;;-3.96;53.54;98822.91;5075745;28;20066;-84
2022/03/03 06:00:48;;;;;;;0.60;0.60;;;;;;;-3.90;53.17;98816.16;5064278;28;20056;-86
2022/03/03 06:03:17;;;;;;;0.60;0.60;;;;;;;-3.85;52.87;98818.34;5085059;28;20047;-84
2022/03/03 06:05:58;;;;;;;0.68;0.68;;;;;;;-3.84;52.91;98814.75;5055842;28;20151;-85
2022/03/03 06:08:39;;;;;;;0.63;0.63;;;;;;;-3.82;52.92;98810.97;5046143;28;20534;-84
2022/03/03 06:11:12;;;;;;;0.60;0.60;;;;;;;-3.74;52.81;98804.91;5091420;28;20052;-84
2022/03/03 06:13:47;;;;;;;0.80;0.80;;;;;;;-3.65;52.70;98809.19;5092907;28;20043;-85
2022/03/03 06:16:19;;;;;;;0.70;0.70;;;;;;;-3.54;52.61;98790.47;5092691;28;20059;-84
2022/03/03 06:18:48;;;;;;;0.60;0.60;;;;;;;-3.36;52.09;98797.44;5086716;28;20052;-83
2022/03/03 06:21:16;;;;;;;0.70;0.70;;;;;;;-3.27;51.82;98783.28;5062404;28;20083;-84
2022/03/03 06:23:44;;;;;;;0.50;0.50;;;;;;;-3.16;51.63;98787.44;5073168;28;20058;-84
2022/03/03 06:26:15;;;;;;;0.60;0.60;;;;;;;-3.00;51.40;98794.56;5085071;28;20044;-84
2022/03/03 06:28:42;;;;;;;0.70;0.70;;;;;;;-2.88;51.52;98793.25;5074297;28;20109;-82
2022/03/03 06:31:09;;;;;;;0.80;0.80;;;;;;;-2.75;51.03;98783.03;5096937;28;20095;-85
2022/03/03 06:33:38;;;;;;;0.60;0.60;;;;;;;-2.68;51.05;98781.38;5076839;28;20067;-82
2022/03/03 06:36:07;;;;;;;0.57;0.57;;;;;;;-2.71;51.03;98784.34;5074947;28;20071;-83
2022/03/03 06:38:35;;;;;;;0.60;0.60;;;;;;;-2.65;51.04;98775.75;5075011;28;20050;-82
2022/03/03 06:41:05;;;;;;;0.60;0.60;;;;;;;-2.56;50.97;98773.94;5091618;28;20040;-83
2022/03/03 06:43:34;;;;;;;0.63;0.63;;;;;;;-2.49;50.77;98763.53;5090903;28;20495;-84
2022/03/03 06:46:02;;;;;;;0.60;0.60;;;;;;;-2.40;50.92;98766.00;5080564;28;20044;-85
2022/03/03 06:48:30;;;;;;;0.52;0.52;;;;;;;-2.28;50.77;98766.50;4737806;28;10000474;-84
2022/03/03 06:51:02;;;;;;;0.73;0.73;;;;;;;-2.23;50.49;98753.59;5072564;28;20478;-84
2022/03/03 06:53:34;;;;;;;0.60;0.60;;;;;;;-2.24;50.14;98754.56;5053518;28;20142;-84
2022/03/03 06:56:06;;;;;;;0.70;0.70;;;;;;;-2.10;50.43;98755.69;5066185;28;20052;-83
2022/03/03 06:58:34;;;;;;;0.60;0.60;;;;;;;-1.93;49.95;98763.56;5074340;28;20040;-84
2022/03/03 07:01:04;;;;;;;0.60;0.60;;;;;;;-1.87;49.81;98763.72;5078164;28;20122;-83
2022/03/03 07:03:33;;;;;;;0.90;0.90;;;;;;;-1.92;49.53;98758.13;5071146;28;20109;-84
2022/03/03 07:06:02;;;;;;;0.68;0.68;;;;;;;-1.82;49.57;98764.03;5050420;28;20065;-83
2022/03/03 07:08:31;;;;;;;0.82;0.82;;;;;;;-1.70;49.46;98758.38;5082604;28;20044;-82
2022/03/03 07:10:59;;;;;;;0.68;0.68;;;;;;;-1.55;49.08;98746.88;5067801;28;20040;-84
2022/03/03 07:13:26;;;;;;;0.63;0.63;;;;;;;-1.34;48.89;98748.94;5089163;28;20163;-83
2022/03/03 07:16:23;;;;;;;0.60;0.60;;;;;;;-1.16;48.58;98751.31;5063721;28;20106;-83
2022/03/03 07:18:58;;;;;;;0.70;0.70;;;;;;;-1.16;48.72;98761.06;5062363;28;20071;-82
2022/03/03 07:22:02;;;;;;;0.57;0.57;;;;;;;-1.16;48.72;98753.13;5080358;28;20457;-83
2022/03/03 07:24:35;;;;;;;0.63;0.63;;;;;;;-1.04;48.49;98751.69;5052021;28;20499;-82
2022/03/03 07:27:08;;;;;;;0.60;0.60;;;;;;;-0.81;48.25;98748.22;5064384;28;20593;-82
2022/03/03 07:29:36;;;;;;;0.50;0.50;;;;;;;-0.54;47.86;98752.16;5092388;28;20081;-82
2022/03/03 07:32:07;;;;;;;0.90;0.90;;;;;;;-0.40;47.79;98748.72;5074575;28;20044;-82
2022/03/03 07:34:37;;;;;;;0.80;0.80;;;;;;;-0.40;47.09;98737.28;5070794;28;20051;-82
2022/03/03 07:37:11;;;;;;;0.80;0.80;;;;;;;-0.26;47.03;98752.38;5067074;28;20452;-83
2022/03/03 07:39:43;;;;;;;0.80;0.80;;;;;;;-0.13;46.97;98741.16;5080557;28;20359;-83
2022/03/03 07:42:13;;;;;;;0.90;0.90;;;;;;;0.13;46.31;98740.72;5069271;28;20051;-81
2022/03/03 07:44:40;;;;;;;0.70;0.70;;;;;;;0.28;46.29;98738.88;5071936;28;20052;-83
2022/03/03 07:47:08;;;;;;;0.70;0.70;;;;;;;0.41;46.06;98736.38;5073962;28;20050;-82
2022/03/03 07:49:35;;;;;;;0.65;0.65;;;;;;;0.50;45.98;98745.03;5068019;28;20570;-85
2022/03/03 07:52:04;;;;;;;0.98;0.98;;;;;;;0.77;45.34;98730.22;5062282;28;20045;-84
2022/03/03 07:54:31;;;;;;;0.85;0.85;;;;;;;1.19;44.88;98738.41;5088839;28;20059;-85
2022/03/03 07:57:00;;;;;;;0.80;0.80;;;;;;;1.39;44.51;98734.06;5073868;28;20052;-84
2022/03/03 07:59:35;;;;;;;0.90;0.90;;;;;;;1.51;44.07;98729.06;5074322;28;20044;-85
2022/03/03 08:02:05;;;;;;;0.90;0.90;;;;;;;1.70;43.87;98731.06;5067888;28;20076;-85
2022/03/03 08:04:33;;;;;;;0.90;0.90;;;;;;;1.90;43.13;98731.19;5086882;28;20055;-83
2022/03/03 08:07:07;;;;;;;1.00;1.00;;;;;;;2.11;42.93;98726.81;5073907;28;20103;-84
2022/03/03 08:09:36;;;;;;;0.80;0.80;;;;;;;2.64;41.85;98728.88;5073176;28;20427;-84
2022/03/03 08:12:05;;;;;;;0.90;0.90;;;;;;;2.96;41.14;98720.16;5091217;28;20089;-84
2022/03/03 08:14:32;;;;;;;1.00;1.00;;;;;;;3.23;40.74;98712.16;5070641;28;20067;-84
2022/03/03 08:17:00;;;;;;;1.00;1.00;;;;;;;3.35;40.13;98710.53;5073493;28;20048;-85
2022/03/03 08:19:28;;;;;;;0.90;0.90;;;;;;;3.37;40.27;98718.34;5072990;28;20048;-84
2022/03/03 08:21:55;;;;;;;1.00;1.00;;;;;;;3.74;39.55;98705.38;5091371;28;20075;-84
2022/03/03 08:24:26;;;;;;;0.90;0.90;;;;;;;4.07;39.36;98705.31;5052529;28;20100;-85
2022/03/03 08:26:56;;;;;;;1.10;1.10;;;;;;;4.41;38.58;98711.38;5074569;28;20078;-86
2022/03/03 08:29:24;;;;;;;1.10;1.10;;;;;;;4.40;38.54;98704.38;5082889;28;20101;-84
2022/03/03 08:31:54;;;;;;;0.90;0.90;;;;;;;4.48;38.17;98704.13;5082296;28;20056;-83
2022/03/03 08:34:28;;;;;;;0.88;0.88;;;;;;;4.75;37.92;98702.97;5049179;28;20071;-85
2022/03/03 08:37:00;;;;;;;1.10;1.10;;;;;;;5.01;37.30;98701.16;5071122;28;20459;-85
2022/03/03 08:39:29;;;;;;;1.00;1.00;;;;;;;5.12;37.44;98692.47;5067088;28;20076;-84
2022/03/03 08:42:00;;;;;;;1.08;1.08;;;;;;;5.28;37.29;98695.66;5089775;28;20422;-84
2022/03/03 08:44:51;;;;;;;1.00;1.00;;;;;;;5.72;36.78;98699.16;5075563;28;20048;-83
2022/03/03 08:47:21;;;;;;;0.98;0.98;;;;;;;5.86;36.16;98693.47;5090722;28;20051;-83
2022/03/03 08:49:56;;;;;;;1.00;1.00;;;;;;;6.13;35.80;98700.44;5072580;28;20043;-83
2022/03/03 08:52:46;;;;;;;1.00;1.00;;;;;;;6.50;35.13;98698.56;5090229;28;20047;-85
2022/03/03 08:55:14;;;;;;;1.00;1.00;;;;;;;6.93;34.77;98701.06;5087526;28;20062;-83
2022/03/03 08:57:41;;;;;;;0.90;0.90;;;;;;;6.70;34.72;98701.00;5088895;28;20052;-84
2022/03/03 09:00:10;;;;;;;1.00;1.00;;;;;;;6.82;34.72;98699.19;5081747;28;20495;-84
2022/03/03 09:02:40;;;;;;;0.90;0.90;;;;;;;7.37;34.15;98695.50;5067826;28;20058;-83
2022/03/03 09:05:12;;;;;;;0.90;0.90;;;;;;;7.91;33.21;98698.88;5087941;28;20135;-85
2022/03/03 09:07:39;;;;;;;0.93;0.93;;;;;;;7.97;33.27;98697.13;5083837;28;20048;-83
2022/03/03 09:10:07;;;;;;;0.90;0.90;;;;;;;8.02;33.46;98702.59;5054542;28;20056;-84
2022/03/03 09:12:34;;;;;;;0.90;0.90;;;;;;;8.63;32.57;98686.97;5089877;28;20048;-84
2022/03/03 09:15:02;;;;;;;1.00;1.00;;;;;;;8.92;32.38;98687.78;5090141;28;20575;-83
2022/03/03 09:17:32;;;;;;;0.90;0.90;;;;;;;9.37;30.90;98686.97;5090192;28;20048;-83
2022/03/03 09:20:00;;;;;;;0.90;0.90;;;;;;;9.83;30.76;98684.97;5086758;28;20105;-85
2022/03/03 09:22:38;;;;;;;0.90;0.90;;;;;;;9.62;30.19;98688.41;5078082;28;20056;-83
2022/03/03 09:25:06;;;;;;;0.90;0.90;;;;;;;9.53;30.84;98672.66;5070396;28;20059;-83
2022/03/03 09:27:34;;;;;;;0.90;0.90;;;;;;;10.03;30.24;98673.66;5052550;28;20055;-83
2022/03/03 09:30:01;;;;;;;0.90;0.90;;;;;;;10.24;29.80;98677.44;5071817;28;20082;-81
2022/03/03 09:32:29;;;;;;;0.90;0.90;;;;;;;10.19;29.40;98674.66;5077976;28;20044;-83
2022/03/03 09:34:56;;;;;;;0.82;0.82;;;;;;;10.45;29.18;98675.03;5072156;28;20055;-82
2022/03/03 09:37:23;;;;;;;0.90;0.90;;;;;;;10.82;29.16;98681.38;5086826;28;20086;-83
2022/03/03 09:39:51;;;;;;;0.90;0.90;;;;;;;10.88;28.74;98679.53;5086436;28;20044;-83
2022/03/03 09:42:18;;;;;;;0.90;0.90;;;;;;;11.01;28.21;98670.22;5065623;28;20929;-81
2022/03/03 09:44:46;;;;;;;0.90;0.90;;;;;;;10.76;28.00;98670.78;5075564;28;20094;-83
2022/03/03 09:47:20;;;;;;;0.90;0.90;;;;;;;10.46;28.65;98679.34;5067058;28;20048;-83
2022/03/03 09:49:47;;;;;;;0.90;0.90;;;;;;;10.14;29.20;98678.09;5047870;28;20139;-83
2022/03/03 09:52:17;;;;;;;0.90;0.90;;;;;;;10.48;29.09;98678.03;5048141;28;20040;-83
2022/03/03 09:54:48;;;;;;;0.90;0.90;;;;;;;10.74;28.44;98671.03;5068410;28;20051;-83
2022/03/03 09:57:15;;;;;;;0.90;0.90;;;;;;;10.98;28.38;98670.75;5077210;28;20421;-83
2022/03/03 09:59:47;;;;;;;0.90;0.90;;;;;;;11.44;27.77;98674.69;5086462;28;20101;-82
2022/03/03 10:02:14;;;;;;;0.90;0.90;;;;;;;11.62;27.44;98659.94;5084979;28;20601;-83
2022/03/03 10:04:41;;;;;;;0.90;0.90;;;;;;;11.28;27.63;98654.00;5085786;28;20044;-82
2022/03/03 10:07:09;;;;;;;0.90;0.90;;;;;;;11.48;28.20;98658.75;5063717;28;20057;-84
2022/03/03 10:09:59;;;;;;;0.90;0.90;;;;;;;11.85;27.04;98660.59;5056682;28;20045;-84
2022/03/03 10:12:43;;;;;;;0.90;0.90;;;;;;;12.52;26.54;98649.06;5067116;28;20041;-83
2022/03/03 10:15:14;;;;;;;1.00;1.00;;;;;;;13.11;25.73;98647.00;5063454;28;20200;-82
2022/03/03 10:17:42;;;;;;;0.90;0.90;;;;;;;13.24;24.91;98641.06;5069538;28;20143;-84
2022/03/03 10:20:10;;;;;;;0.90;0.90;;;;;;;12.11;26.20;98643.50;5087296;28;20155;-83
2022/03/03 10:22:58;;;;;;;0.90;0.90;;;;;;;12.04;26.53;98634.78;5079704;28;20426;-85
2022/03/03 10:25:39;;;;;;;0.90;0.90;;;;;;;12.60;26.57;98636.91;5062830;28;20099;-84
2022/03/03 10:28:09;;;;;;;1.00;1.00;;;;;;;13.22;25.43;98635.94;5088373;28;20070;-83
2022/03/03 10:31:03;;;;;;;1.00;1.00;;;;;;;13.57;24.79;98639.75;5093393;28;20125;-83
2022/03/03 10:33:39;;;;;;;0.90;0.90;;;;;;;12.64;25.14;98629.09;5070443;28;20048;-82
2022/03/03 10:36:15;;;;;;;0.90;0.90;;;;;;;12.55;25.37;98635.00;5073781;28;20060;-84
2022/03/03 10:39:01;;;;;;;0.90;0.90;;;;;;;13.02;24.46;98631.31;5071450;28;20057;-83
2022/03/03 10:41:40;;;;;;;0.90;0.90;;;;;;;12.42;25.14;98629.28;5081712;28;20048;-83
2022/03/03 10:44:17;;;;;;;0.90;0.90;;;;;;;12.59;25.17;98632.59;5056755;28;20411;-82
2022/03/03 10:47:18;;;;;;;0.90;0.90;;;;;;;13.06;24.97;98623.44;5065459;28;20044;-83
2022/03/03 10:49:48;;;;;;;1.00;1.00;;;;;;;13.97;23.66;98620.94;5014200;28;20076;-84
2022/03/03 10:52:20;;;;;;;0.90;0.90;;;;;;;13.59;23.11;98625.91;5030617;28;20045;-82
2022/03/03 10:54:58;;;;;;;1.00;1.00;;;;;;;13.22;23.35;98616.16;5030819;28;20049;-83
2022/03/03 10:57:45;;;;;;;0.90;0.90;;;;;;;12.67;23.77;98617.72;5031003;28;20057;-83
2022/03/03 11:00:20;;;;;;;0.90;0.90;;;;;;;12.76;24.05;98611.50;5031194;28;20056;-83
2022/03/03 11:02:50;;;;;;;0.95;0.95;;;;;;;13.25;23.76;98612.88;5012890;28;20411;-83
2022/03/03 11:05:19;;;;;;;0.90;0.90;;;;;;;13.37;23.19;98608.03;5030381;28;20060;-83
2022/03/03 11:07:49;;;;;;;0.90;0.90;;;;;;;13.63;23.43;98605.28;5030554;28;20186;-85
2022/03/03 11:10:21;;;;;;;0.90;0.90;;;;;;;14.47;22.35;98614.50;5030510;28;20227;-83
2022/03/03 11:12:50;;;;;;;;;;;;;;;14.73;22.78;98604.31;5030778;28;20504;-84
2022/03/03 11:15:20;;;;;;;0.90;0.90;;;;;;;13.93;23.17;98606.31;5030011;28;20039;-83
2022/03/03 11:17:48;;;;;;;0.90;0.90;;;;;;;13.81;22.85;98606.59;5028674;28;20049;-82
2022/03/03 11:20:18;;;;;;;1.00;1.00;;;;;;;14.30;22.66;98595.84;5030398;28;20639;-84
2022/03/03 11:22:46;;;;;;;0.90;0.90;;;;;;;14.53;22.07;98604.44;5030247;28;20109;-84
2022/03/03 11:25:17;;;;;;;0.90;0.90;;;;;;;14.86;21.82;98593.91;5033991;28;20128;-83
2022/03/03 11:27:47;;;;;;;0.90;0.90;;;;;;;14.60;22.69;98598.72;5080233;28;20048;-84
2022/03/03 11:30:24;;;;;;;0.90;0.90;;;;;;;14.57;22.18;98599.28;5072680;28;20076;-84
2022/03/03 11:33:17;;;;;;;0.90;0.90;;;;;;;14.40;22.03;98594.97;5061407;28;20102;-83
2022/03/03 11:35:51;;;;;;;0.90;0.90;;;;;;;14.83;22.05;98597.19;5085303;28;20527;-87
2022/03/03 11:38:19;;;;;;;0.90;0.90;;;;;;;15.05;21.83;98599.50;5085156;28;20063;-85
2022/03/03 11:41:13;;;;;;;0.90;0.90;;;;;;;15.44;21.58;98585.81;5063808;28;20044;-85
2022/03/03 11:43:49;;;;;;;0.90;0.90;;;;;;;16.03;20.68;98584.69;5058795;28;20045;-87
2022/03/03 11:46:45;;;;;;;0.80;0.80;;;;;;;16.44;20.44;98586.91;5086869;28;20056;-85
2022/03/03 11:49:20;;;;;;;0.70;0.70;;;;;;;15.88;19.32;98586.78;5079450;28;20072;-85